Argyle, Florida
Current Conditions -  °F | °C
As of 1:35 AM on Wednesday 22 Oct 2014 (Local Time) from K54J Reporting Station
Clear Clear  
Wind Chill: 59°   Ceiling: Unl
Heat Index: 59°   Visibility: 10mi
Dew Point: 55°   Wind: 3mph
Humidity: 86%   Direction: 340°NNW
Pressure: 30"   Gusts: NA
Location:  30.72°N, 86.04°W
Report Text: K54J 220635Z AUTO 34003KT 10SM CLR 15/13 A3000 RMK AO2 T01480125
Loading
Personal Weather Stations






























Interactive Weather Map New forecast layout! Learn more

10-Day Weather Forecast

Advertisements
Track Severe Weather on mobile